Главная страница
METAR-TAF:

METAR-TAF

Аэропорты :

Бургас, Болгария

широта: 42-29N, долгота: 027-29E, высота над уровнем моря: 16 м

Текущие метеонаблюдения

Эта сводка был подготовлена 34 минут назад, в 22:00 UTC
Ветер 2 Узел переменных направлений
Температура 24°C
Влажность 54%
Давление 1012 hPa
Видимость 10 км и более
Нет облачности ниже 1500 м, и нет кучево-дождевой облачности

METAR: LBBG 172200Z VRB02KT CAVOK 24/14 Q1012 NOSIG

Время: 01:34 (22:34 UTC)

Прогноз

Эта сводка был подготовлена 5 часа и 34 минут назад, в 17:00 UTC
Прогноз действительный с 17-го 18 UTC до 18-го 18 UTC
Ветер 10 Узел от восточный
Видимость 10 км и более
Отдельные облака на высоте 5000 фута
изменения
С 17-го 18 UTC до 17-го 20 UTC
Ветер 8 Узел от северо-северо-восточный
изменения
С 18-го 08 UTC до 18-го 10 UTC
Ветер 14 Узел от восточный

TAF: LBBG 171700Z 1718/1818 08010KT 9999 SCT050 BECMG 1718/1720 02008KT BECMG 1808/1810 08014KT

Метеонаблюдения и прогнозы для более 4000 аэропортов (сводки METAR и TAF).

Имеющиеся станции представлены на карте желтыми и красными точками.

Чтобы увидеть название станции, наведите на нее мышь.

Затем щелкните, чтобы увидеть метеонаблюдения и метеопрогнозы.

Управление картой: чтобы увеличить масштаб, щелкните зеленые кнопки с черным крестиком; чтобы уменьшить масштаб, щелкните зеленую кнопку с тире; для просмотра соседних карт щелкайте зеленые стрелки.


METAR-TAF: